sensor_id;sensor_type;location;lat;lon;timestamp;P1;durP1;ratioP1;P2;durP2;ratioP2
62654;SDS011;48717;55.556;37.816;2023-07-31T00:02:03;28.48;;;10.13;;
62654;SDS011;48717;55.556;37.816;2023-07-31T00:04:31;29.70;;;11.50;;
62654;SDS011;48717;55.556;37.816;2023-07-31T00:06:58;23.17;;;9.73;;
62654;SDS011;48717;55.556;37.816;2023-07-31T00:09:25;24.58;;;9.82;;
62654;SDS011;48717;55.556;37.816;2023-07-31T00:11:52;25.45;;;9.57;;
62654;SDS011;48717;55.556;37.816;2023-07-31T00:14:19;21.00;;;8.40;;
62654;SDS011;48717;55.556;37.816;2023-07-31T00:16:46;20.77;;;8.70;;
62654;SDS011;48717;55.556;37.816;2023-07-31T00:19:17;21.55;;;7.47;;
62654;SDS011;48717;55.556;37.816;2023-07-31T00:21:44;23.63;;;8.00;;
62654;SDS011;48717;55.556;37.816;2023-07-31T00:24:11;13.85;;;7.78;;
62654;SDS011;48717;55.556;37.816;2023-07-31T00:26:38;22.52;;;8.45;;
62654;SDS011;48717;55.556;37.816;2023-07-31T00:29:06;22.95;;;8.05;;
62654;SDS011;48717;55.556;37.816;2023-07-31T00:31:33;26.60;;;8.23;;
62654;SDS011;48717;55.556;37.816;2023-07-31T00:34:00;20.98;;;7.60;;
62654;SDS011;48717;55.556;37.816;2023-07-31T00:36:27;15.73;;;7.15;;
62654;SDS011;48717;55.556;37.816;2023-07-31T00:38:54;14.85;;;7.20;;
62654;SDS011;48717;55.556;37.816;2023-07-31T00:41:21;13.00;;;6.45;;
62654;SDS011;48717;55.556;37.816;2023-07-31T00:43:48;18.63;;;6.80;;
62654;SDS011;48717;55.556;37.816;2023-07-31T00:46:15;19.48;;;8.43;;
62654;SDS011;48717;55.556;37.816;2023-07-31T00:48:43;21.85;;;9.85;;
62654;SDS011;48717;55.556;37.816;2023-07-31T00:51:10;16.52;;;7.80;;
62654;SDS011;48717;55.556;37.816;2023-07-31T00:53:38;15.77;;;8.30;;
62654;SDS011;48717;55.556;37.816;2023-07-31T00:56:08;10.65;;;7.07;;
62654;SDS011;48717;55.556;37.816;2023-07-31T00:58:35;11.25;;;6.32;;
62654;SDS011;48717;55.556;37.816;2023-07-31T01:01:02;12.18;;;6.18;;
62654;SDS011;48717;55.556;37.816;2023-07-31T01:03:30;15.15;;;6.28;;
62654;SDS011;48717;55.556;37.816;2023-07-31T01:14:09;11.98;;;5.88;;
62654;SDS011;48717;55.556;37.816;2023-07-31T01:16:37;13.88;;;6.57;;
62654;SDS011;48717;55.556;37.816;2023-07-31T01:19:05;16.92;;;6.95;;
62654;SDS011;48717;55.556;37.816;2023-07-31T01:30:09;14.48;;;7.07;;
62654;SDS011;48717;55.556;37.816;2023-07-31T01:32:43;13.70;;;6.90;;
62654;SDS011;48717;55.556;37.816;2023-07-31T01:35:15;12.55;;;5.85;;
62654;SDS011;48717;55.556;37.816;2023-07-31T01:37:42;10.32;;;6.22;;
62654;SDS011;48717;55.556;37.816;2023-07-31T01:40:09;15.27;;;5.75;;
62654;SDS011;48717;55.556;37.816;2023-07-31T01:42:36;12.88;;;6.55;;
62654;SDS011;48717;55.556;37.816;2023-07-31T01:45:03;15.75;;;6.28;;
62654;SDS011;48717;55.556;37.816;2023-07-31T01:47:31;15.05;;;5.80;;
62654;SDS011;48717;55.556;37.816;2023-07-31T01:49:58;20.88;;;5.97;;
62654;SDS011;48717;55.556;37.816;2023-07-31T01:52:25;14.13;;;5.72;;
62654;SDS011;48717;55.556;37.816;2023-07-31T01:54:52;14.85;;;5.97;;
62654;SDS011;48717;55.556;37.816;2023-07-31T01:57:20;13.27;;;6.22;;
62654;SDS011;48717;55.556;37.816;2023-07-31T01:59:47;13.20;;;6.80;;
62654;SDS011;48717;55.556;37.816;2023-07-31T02:02:14;15.38;;;6.50;;
62654;SDS011;48717;55.556;37.816;2023-07-31T02:04:41;16.48;;;7.63;;
62654;SDS011;48717;55.556;37.816;2023-07-31T02:07:08;20.92;;;7.97;;
62654;SDS011;48717;55.556;37.816;2023-07-31T02:09:36;15.45;;;7.10;;
62654;SDS011;48717;55.556;37.816;2023-07-31T02:12:03;20.95;;;7.00;;
62654;SDS011;48717;55.556;37.816;2023-07-31T02:14:30;15.45;;;7.25;;
62654;SDS011;48717;55.556;37.816;2023-07-31T02:16:59;15.15;;;7.20;;
62654;SDS011;48717;55.556;37.816;2023-07-31T02:19:27;16.88;;;6.78;;
62654;SDS011;48717;55.556;37.816;2023-07-31T02:21:54;19.02;;;6.82;;
62654;SDS011;48717;55.556;37.816;2023-07-31T02:24:22;14.35;;;6.90;;
62654;SDS011;48717;55.556;37.816;2023-07-31T02:26:50;17.77;;;6.88;;
62654;SDS011;48717;55.556;37.816;2023-07-31T02:29:17;18.30;;;6.63;;
62654;SDS011;48717;55.556;37.816;2023-07-31T02:31:44;21.17;;;8.20;;
62654;SDS011;48717;55.556;37.816;2023-07-31T02:34:11;15.57;;;7.35;;
62654;SDS011;48717;55.556;37.816;2023-07-31T02:36:38;14.10;;;7.38;;
62654;SDS011;48717;55.556;37.816;2023-07-31T02:39:07;12.73;;;7.10;;
62654;SDS011;48717;55.556;37.816;2023-07-31T02:41:34;15.45;;;7.63;;
62654;SDS011;48717;55.556;37.816;2023-07-31T02:44:01;19.38;;;7.50;;
62654;SDS011;48717;55.556;37.816;2023-07-31T02:46:28;14.68;;;7.32;;
62654;SDS011;48717;55.556;37.816;2023-07-31T02:48:55;15.40;;;8.25;;
62654;SDS011;48717;55.556;37.816;2023-07-31T02:51:22;15.35;;;8.60;;
62654;SDS011;48717;55.556;37.816;2023-07-31T02:53:49;16.00;;;8.23;;
62654;SDS011;48717;55.556;37.816;2023-07-31T02:56:16;18.95;;;9.10;;
62654;SDS011;48717;55.556;37.816;2023-07-31T02:58:43;17.30;;;8.77;;
62654;SDS011;48717;55.556;37.816;2023-07-31T03:01:10;15.52;;;8.70;;
62654;SDS011;48717;55.556;37.816;2023-07-31T03:03:38;13.35;;;7.35;;
62654;SDS011;48717;55.556;37.816;2023-07-31T03:06:05;19.25;;;7.85;;
62654;SDS011;48717;55.556;37.816;2023-07-31T03:08:32;24.98;;;7.03;;
62654;SDS011;48717;55.556;37.816;2023-07-31T03:10:59;27.05;;;7.82;;
62654;SDS011;48717;55.556;37.816;2023-07-31T03:13:27;25.58;;;7.75;;
62654;SDS011;48717;55.556;37.816;2023-07-31T03:15:54;21.60;;;7.82;;
62654;SDS011;48717;55.556;37.816;2023-07-31T03:18:21;17.23;;;6.70;;
62654;SDS011;48717;55.556;37.816;2023-07-31T03:20:48;19.20;;;8.13;;
62654;SDS011;48717;55.556;37.816;2023-07-31T03:23:16;20.00;;;7.28;;
62654;SDS011;48717;55.556;37.816;2023-07-31T03:26:07;30.33;;;15.13;;
62654;SDS011;48717;55.556;37.816;2023-07-31T03:28:33;19.92;;;8.05;;
62654;SDS011;48717;55.556;37.816;2023-07-31T03:31:00;26.77;;;10.07;;
62654;SDS011;48717;55.556;37.816;2023-07-31T03:33:29;28.00;;;11.60;;
62654;SDS011;48717;55.556;37.816;2023-07-31T03:35:56;20.08;;;8.40;;
62654;SDS011;48717;55.556;37.816;2023-07-31T03:38:23;20.85;;;9.27;;
62654;SDS011;48717;55.556;37.816;2023-07-31T03:40:53;23.73;;;8.77;;
62654;SDS011;48717;55.556;37.816;2023-07-31T03:43:20;20.35;;;10.40;;
62654;SDS011;48717;55.556;37.816;2023-07-31T03:45:47;19.27;;;8.15;;
62654;SDS011;48717;55.556;37.816;2023-07-31T03:48:14;23.52;;;7.63;;
62654;SDS011;48717;55.556;37.816;2023-07-31T03:50:43;28.65;;;13.20;;
62654;SDS011;48717;55.556;37.816;2023-07-31T03:53:10;27.27;;;12.48;;
62654;SDS011;48717;55.556;37.816;2023-07-31T03:55:37;20.73;;;8.65;;
62654;SDS011;48717;55.556;37.816;2023-07-31T03:58:04;33.10;;;11.82;;
62654;SDS011;48717;55.556;37.816;2023-07-31T04:00:31;31.85;;;13.48;;
62654;SDS011;48717;55.556;37.816;2023-07-31T04:02:58;21.83;;;9.25;;
62654;SDS011;48717;55.556;37.816;2023-07-31T04:05:26;18.30;;;8.10;;
62654;SDS011;48717;55.556;37.816;2023-07-31T04:07:53;23.15;;;9.35;;
62654;SDS011;48717;55.556;37.816;2023-07-31T04:10:20;15.27;;;8.48;;
62654;SDS011;48717;55.556;37.816;2023-07-31T04:12:47;17.17;;;7.80;;
62654;SDS011;48717;55.556;37.816;2023-07-31T04:15:14;25.75;;;11.13;;
62654;SDS011;48717;55.556;37.816;2023-07-31T04:17:41;20.23;;;9.15;;
62654;SDS011;48717;55.556;37.816;2023-07-31T04:20:09;13.70;;;7.10;;
62654;SDS011;48717;55.556;37.816;2023-07-31T04:22:36;14.13;;;7.82;;
62654;SDS011;48717;55.556;37.816;2023-07-31T04:25:03;15.25;;;6.35;;
62654;SDS011;48717;55.556;37.816;2023-07-31T04:27:31;17.08;;;6.55;;
62654;SDS011;48717;55.556;37.816;2023-07-31T04:29:58;16.25;;;6.50;;
62654;SDS011;48717;55.556;37.816;2023-07-31T04:32:25;15.75;;;6.18;;
62654;SDS011;48717;55.556;37.816;2023-07-31T04:34:52;14.77;;;5.60;;
62654;SDS011;48717;55.556;37.816;2023-07-31T04:37:19;19.88;;;6.78;;
62654;SDS011;48717;55.556;37.816;2023-07-31T04:39:46;19.48;;;6.10;;
62654;SDS011;48717;55.556;37.816;2023-07-31T04:42:13;16.52;;;6.60;;
62654;SDS011;48717;55.556;37.816;2023-07-31T04:44:40;18.73;;;6.82;;
62654;SDS011;48717;55.556;37.816;2023-07-31T04:47:08;18.92;;;6.68;;
62654;SDS011;48717;55.556;37.816;2023-07-31T04:49:35;29.23;;;7.65;;
62654;SDS011;48717;55.556;37.816;2023-07-31T04:52:02;20.17;;;7.28;;
62654;SDS011;48717;55.556;37.816;2023-07-31T04:54:29;17.73;;;6.40;;
62654;SDS011;48717;55.556;37.816;2023-07-31T04:56:56;28.60;;;6.80;;
62654;SDS011;48717;55.556;37.816;2023-07-31T04:59:24;22.35;;;7.30;;
62654;SDS011;48717;55.556;37.816;2023-07-31T05:01:51;21.80;;;7.03;;
62654;SDS011;48717;55.556;37.816;2023-07-31T05:04:18;15.43;;;6.53;;
62654;SDS011;48717;55.556;37.816;2023-07-31T05:06:45;17.65;;;6.60;;
62654;SDS011;48717;55.556;37.816;2023-07-31T05:09:12;15.55;;;6.53;;
62654;SDS011;48717;55.556;37.816;2023-07-31T05:11:40;15.05;;;7.85;;
62654;SDS011;48717;55.556;37.816;2023-07-31T05:14:09;24.52;;;8.48;;
62654;SDS011;48717;55.556;37.816;2023-07-31T05:16:36;22.17;;;6.28;;
62654;SDS011;48717;55.556;37.816;2023-07-31T05:19:04;19.20;;;9.10;;
62654;SDS011;48717;55.556;37.816;2023-07-31T05:21:31;21.38;;;7.47;;
62654;SDS011;48717;55.556;37.816;2023-07-31T05:23:58;16.85;;;6.15;;
62654;SDS011;48717;55.556;37.816;2023-07-31T05:26:25;22.63;;;7.45;;
62654;SDS011;48717;55.556;37.816;2023-07-31T05:28:52;15.07;;;6.78;;
62654;SDS011;48717;55.556;37.816;2023-07-31T05:31:19;13.45;;;6.05;;
62654;SDS011;48717;55.556;37.816;2023-07-31T05:33:49;19.10;;;5.78;;
62654;SDS011;48717;55.556;37.816;2023-07-31T05:36:17;23.63;;;6.05;;
62654;SDS011;48717;55.556;37.816;2023-07-31T05:38:44;26.45;;;9.73;;
62654;SDS011;48717;55.556;37.816;2023-07-31T05:41:12;20.77;;;6.28;;
62654;SDS011;48717;55.556;37.816;2023-07-31T05:43:39;14.60;;;5.40;;
62654;SDS011;48717;55.556;37.816;2023-07-31T05:46:06;19.13;;;5.45;;
62654;SDS011;48717;55.556;37.816;2023-07-31T05:48:35;9.90;;;4.70;;
62654;SDS011;48717;55.556;37.816;2023-07-31T05:51:03;23.48;;;6.78;;
62654;SDS011;48717;55.556;37.816;2023-07-31T05:53:30;16.63;;;6.32;;
62654;SDS011;48717;55.556;37.816;2023-07-31T05:55:57;18.70;;;8.32;;
62654;SDS011;48717;55.556;37.816;2023-07-31T05:58:24;11.13;;;5.40;;
62654;SDS011;48717;55.556;37.816;2023-07-31T06:00:51;6.57;;;3.30;;
62654;SDS011;48717;55.556;37.816;2023-07-31T06:03:18;7.40;;;3.63;;
62654;SDS011;48717;55.556;37.816;2023-07-31T06:05:45;21.30;;;6.10;;
62654;SDS011;48717;55.556;37.816;2023-07-31T06:08:13;11.57;;;4.70;;
62654;SDS011;48717;55.556;37.816;2023-07-31T06:10:40;20.55;;;4.82;;
62654;SDS011;48717;55.556;37.816;2023-07-31T06:13:07;24.48;;;4.57;;
62654;SDS011;48717;55.556;37.816;2023-07-31T06:15:34;9.85;;;2.95;;
62654;SDS011;48717;55.556;37.816;2023-07-31T06:18:02;34.38;;;5.20;;
62654;SDS011;48717;55.556;37.816;2023-07-31T06:20:30;21.85;;;3.80;;
62654;SDS011;48717;55.556;37.816;2023-07-31T06:22:57;13.40;;;3.20;;
62654;SDS011;48717;55.556;37.816;2023-07-31T06:25:24;11.30;;;2.78;;
62654;SDS011;48717;55.556;37.816;2023-07-31T06:27:51;9.15;;;2.28;;
62654;SDS011;48717;55.556;37.816;2023-07-31T06:30:18;3.13;;;2.10;;
62654;SDS011;48717;55.556;37.816;2023-07-31T06:32:45;5.40;;;2.40;;
62654;SDS011;48717;55.556;37.816;2023-07-31T06:35:12;6.20;;;2.20;;
62654;SDS011;48717;55.556;37.816;2023-07-31T06:37:39;5.85;;;2.53;;
62654;SDS011;48717;55.556;37.816;2023-07-31T06:40:07;5.47;;;2.50;;
62654;SDS011;48717;55.556;37.816;2023-07-31T06:42:35;4.78;;;2.90;;
62654;SDS011;48717;55.556;37.816;2023-07-31T06:45:03;5.97;;;3.00;;
62654;SDS011;48717;55.556;37.816;2023-07-31T06:49:59;5.93;;;3.50;;
62654;SDS011;48717;55.556;37.816;2023-07-31T06:52:30;10.35;;;4.50;;
62654;SDS011;48717;55.556;37.816;2023-07-31T06:55:00;13.35;;;5.22;;
62654;SDS011;48717;55.556;37.816;2023-07-31T06:57:46;13.68;;;4.07;;
62654;SDS011;48717;55.556;37.816;2023-07-31T07:00:14;7.60;;;3.78;;
62654;SDS011;48717;55.556;37.816;2023-07-31T07:02:42;11.07;;;3.75;;
62654;SDS011;48717;55.556;37.816;2023-07-31T07:05:09;7.03;;;2.35;;
62654;SDS011;48717;55.556;37.816;2023-07-31T07:07:37;4.97;;;2.05;;
62654;SDS011;48717;55.556;37.816;2023-07-31T07:10:04;3.15;;;2.47;;
62654;SDS011;48717;55.556;37.816;2023-07-31T07:12:32;4.32;;;2.10;;
62654;SDS011;48717;55.556;37.816;2023-07-31T07:15:00;8.25;;;2.20;;
62654;SDS011;48717;55.556;37.816;2023-07-31T07:17:31;8.07;;;3.05;;
62654;SDS011;48717;55.556;37.816;2023-07-31T07:19:59;6.75;;;1.70;;
62654;SDS011;48717;55.556;37.816;2023-07-31T07:22:30;7.55;;;2.95;;
62654;SDS011;48717;55.556;37.816;2023-07-31T07:24:59;8.88;;;2.10;;
62654;SDS011;48717;55.556;37.816;2023-07-31T07:27:30;14.98;;;2.65;;
62654;SDS011;48717;55.556;37.816;2023-07-31T07:29:57;7.38;;;2.88;;
62654;SDS011;48717;55.556;37.816;2023-07-31T07:32:24;6.43;;;2.10;;
62654;SDS011;48717;55.556;37.816;2023-07-31T07:34:51;2.65;;;2.30;;
62654;SDS011;48717;55.556;37.816;2023-07-31T07:37:19;3.85;;;2.55;;
62654;SDS011;48717;55.556;37.816;2023-07-31T07:39:46;5.80;;;2.30;;
62654;SDS011;48717;55.556;37.816;2023-07-31T07:42:13;4.60;;;2.47;;
62654;SDS011;48717;55.556;37.816;2023-07-31T07:44:40;2.72;;;2.33;;
62654;SDS011;48717;55.556;37.816;2023-07-31T07:47:07;6.53;;;2.92;;
62654;SDS011;48717;55.556;37.816;2023-07-31T07:49:35;7.40;;;2.70;;
62654;SDS011;48717;55.556;37.816;2023-07-31T07:52:04;5.15;;;2.08;;
62654;SDS011;48717;55.556;37.816;2023-07-31T07:54:31;9.13;;;2.10;;
62654;SDS011;48717;55.556;37.816;2023-07-31T07:56:59;6.45;;;2.40;;
62654;SDS011;48717;55.556;37.816;2023-07-31T07:59:26;14.57;;;3.10;;
62654;SDS011;48717;55.556;37.816;2023-07-31T08:01:53;7.85;;;2.33;;
62654;SDS011;48717;55.556;37.816;2023-07-31T08:04:20;10.70;;;2.50;;
62654;SDS011;48717;55.556;37.816;2023-07-31T08:06:47;12.07;;;2.75;;
62654;SDS011;48717;55.556;37.816;2023-07-31T08:09:14;4.40;;;1.92;;
62654;SDS011;48717;55.556;37.816;2023-07-31T08:11:42;10.85;;;3.88;;
62654;SDS011;48717;55.556;37.816;2023-07-31T08:14:09;4.32;;;1.63;;
62654;SDS011;48717;55.556;37.816;2023-07-31T08:16:37;1.70;;;1.50;;
62654;SDS011;48717;55.556;37.816;2023-07-31T08:19:04;4.03;;;1.50;;
62654;SDS011;48717;55.556;37.816;2023-07-31T08:21:32;3.63;;;1.67;;
62654;SDS011;48717;55.556;37.816;2023-07-31T08:23:59;3.22;;;1.58;;
62654;SDS011;48717;55.556;37.816;2023-07-31T08:26:26;4.45;;;1.52;;
62654;SDS011;48717;55.556;37.816;2023-07-31T08:28:53;3.22;;;2.03;;
62654;SDS011;48717;55.556;37.816;2023-07-31T08:31:20;2.67;;;2.22;;
62654;SDS011;48717;55.556;37.816;2023-07-31T08:33:48;2.03;;;1.80;;
62654;SDS011;48717;55.556;37.816;2023-07-31T08:36:15;3.13;;;2.15;;
62654;SDS011;48717;55.556;37.816;2023-07-31T08:38:42;8.65;;;2.75;;
62654;SDS011;48717;55.556;37.816;2023-07-31T08:41:09;8.35;;;3.00;;
62654;SDS011;48717;55.556;37.816;2023-07-31T08:43:36;4.90;;;1.80;;
62654;SDS011;48717;55.556;37.816;2023-07-31T08:46:05;4.35;;;2.75;;
62654;SDS011;48717;55.556;37.816;2023-07-31T08:48:33;6.88;;;2.55;;
62654;SDS011;48717;55.556;37.816;2023-07-31T08:51:02;2.92;;;1.80;;
62654;SDS011;48717;55.556;37.816;2023-07-31T08:53:29;3.88;;;2.15;;
62654;SDS011;48717;55.556;37.816;2023-07-31T08:56:00;7.82;;;2.10;;
62654;SDS011;48717;55.556;37.816;2023-07-31T09:01:36;3.78;;;1.80;;
62654;SDS011;48717;55.556;37.816;2023-07-31T09:04:47;2.83;;;2.20;;
62654;SDS011;48717;55.556;37.816;2023-07-31T09:07:15;5.90;;;2.00;;
62654;SDS011;48717;55.556;37.816;2023-07-31T09:09:45;3.80;;;2.55;;
62654;SDS011;48717;55.556;37.816;2023-07-31T09:12:12;7.40;;;1.90;;
62654;SDS011;48717;55.556;37.816;2023-07-31T09:14:39;6.32;;;2.20;;
62654;SDS011;48717;55.556;37.816;2023-07-31T09:17:08;6.03;;;2.20;;
62654;SDS011;48717;55.556;37.816;2023-07-31T09:19:35;8.77;;;2.15;;
62654;SDS011;48717;55.556;37.816;2023-07-31T09:22:06;9.07;;;2.60;;
62654;SDS011;48717;55.556;37.816;2023-07-31T09:24:34;4.15;;;1.73;;
62654;SDS011;48717;55.556;37.816;2023-07-31T09:27:01;2.50;;;2.03;;
62654;SDS011;48717;55.556;37.816;2023-07-31T09:29:28;6.15;;;1.90;;
62654;SDS011;48717;55.556;37.816;2023-07-31T09:31:56;2.28;;;1.88;;
62654;SDS011;48717;55.556;37.816;2023-07-31T09:34:30;9.23;;;2.67;;
62654;SDS011;48717;55.556;37.816;2023-07-31T09:39:32;4.50;;;2.22;;
62654;SDS011;48717;55.556;37.816;2023-07-31T09:41:59;7.93;;;2.40;;
62654;SDS011;48717;55.556;37.816;2023-07-31T09:44:39;6.55;;;2.42;;
62654;SDS011;48717;55.556;37.816;2023-07-31T09:47:21;8.25;;;2.75;;
62654;SDS011;48717;55.556;37.816;2023-07-31T09:49:53;4.93;;;2.10;;
62654;SDS011;48717;55.556;37.816;2023-07-31T09:52:20;10.80;;;3.00;;
62654;SDS011;48717;55.556;37.816;2023-07-31T09:54:48;5.20;;;2.10;;
62654;SDS011;48717;55.556;37.816;2023-07-31T09:57:15;4.93;;;1.80;;
62654;SDS011;48717;55.556;37.816;2023-07-31T09:59:46;4.75;;;2.17;;
62654;SDS011;48717;55.556;37.816;2023-07-31T10:02:17;3.17;;;2.13;;
62654;SDS011;48717;55.556;37.816;2023-07-31T10:04:49;6.40;;;2.03;;
62654;SDS011;48717;55.556;37.816;2023-07-31T10:07:17;3.70;;;2.23;;
62654;SDS011;48717;55.556;37.816;2023-07-31T10:09:45;3.67;;;2.30;;
62654;SDS011;48717;55.556;37.816;2023-07-31T10:12:13;4.85;;;2.67;;
62654;SDS011;48717;55.556;37.816;2023-07-31T10:14:43;4.95;;;2.97;;
62654;SDS011;48717;55.556;37.816;2023-07-31T10:17:11;4.00;;;2.97;;
62654;SDS011;48717;55.556;37.816;2023-07-31T10:19:40;6.43;;;2.40;;
62654;SDS011;48717;55.556;37.816;2023-07-31T10:22:09;2.70;;;2.50;;
62654;SDS011;48717;55.556;37.816;2023-07-31T10:24:39;4.65;;;2.88;;
62654;SDS011;48717;55.556;37.816;2023-07-31T10:27:06;6.55;;;3.17;;
62654;SDS011;48717;55.556;37.816;2023-07-31T10:29:34;8.93;;;2.80;;
62654;SDS011;48717;55.556;37.816;2023-07-31T10:32:02;2.10;;;1.90;;
62654;SDS011;48717;55.556;37.816;2023-07-31T10:34:33;5.10;;;3.00;;
62654;SDS011;48717;55.556;37.816;2023-07-31T10:40:11;4.97;;;2.72;;
62654;SDS011;48717;55.556;37.816;2023-07-31T10:42:51;6.40;;;2.92;;
62654;SDS011;48717;55.556;37.816;2023-07-31T10:50:54;5.88;;;3.42;;
62654;SDS011;48717;55.556;37.816;2023-07-31T10:53:26;4.70;;;2.70;;
62654;SDS011;48717;55.556;37.816;2023-07-31T10:55:59;4.93;;;2.95;;
62654;SDS011;48717;55.556;37.816;2023-07-31T10:58:36;3.28;;;2.33;;
62654;SDS011;48717;55.556;37.816;2023-07-31T11:01:05;5.28;;;2.60;;
62654;SDS011;48717;55.556;37.816;2023-07-31T11:03:46;7.05;;;2.80;;
62654;SDS011;48717;55.556;37.816;2023-07-31T11:06:19;8.30;;;2.50;;
62654;SDS011;48717;55.556;37.816;2023-07-31T11:08:47;3.10;;;1.90;;
62654;SDS011;48717;55.556;37.816;2023-07-31T11:11:17;4.20;;;2.40;;
62654;SDS011;48717;55.556;37.816;2023-07-31T11:13:49;5.32;;;2.97;;
62654;SDS011;48717;55.556;37.816;2023-07-31T11:16:19;11.48;;;8.80;;
62654;SDS011;48717;55.556;37.816;2023-07-31T11:18:51;4.28;;;2.25;;
62654;SDS011;48717;55.556;37.816;2023-07-31T11:21:22;10.27;;;3.25;;
62654;SDS011;48717;55.556;37.816;2023-07-31T11:23:52;6.93;;;2.60;;
62654;SDS011;48717;55.556;37.816;2023-07-31T11:26:24;5.82;;;2.72;;
62654;SDS011;48717;55.556;37.816;2023-07-31T11:28:52;7.88;;;2.72;;
62654;SDS011;48717;55.556;37.816;2023-07-31T11:31:19;8.73;;;2.67;;
62654;SDS011;48717;55.556;37.816;2023-07-31T11:33:47;21.80;;;3.53;;
62654;SDS011;48717;55.556;37.816;2023-07-31T11:36:15;8.75;;;2.88;;
62654;SDS011;48717;55.556;37.816;2023-07-31T11:38:44;12.27;;;2.55;;
62654;SDS011;48717;55.556;37.816;2023-07-31T11:41:13;6.95;;;2.40;;
62654;SDS011;48717;55.556;37.816;2023-07-31T11:43:45;14.73;;;3.17;;
62654;SDS011;48717;55.556;37.816;2023-07-31T11:46:12;11.18;;;2.63;;
62654;SDS011;48717;55.556;37.816;2023-07-31T11:48:42;6.47;;;2.53;;
62654;SDS011;48717;55.556;37.816;2023-07-31T11:51:12;18.02;;;3.05;;
62654;SDS011;48717;55.556;37.816;2023-07-31T11:53:50;9.50;;;2.50;;
62654;SDS011;48717;55.556;37.816;2023-07-31T11:56:20;5.85;;;2.53;;
62654;SDS011;48717;55.556;37.816;2023-07-31T11:58:53;6.68;;;2.65;;
62654;SDS011;48717;55.556;37.816;2023-07-31T12:01:24;10.80;;;3.17;;
62654;SDS011;48717;55.556;37.816;2023-07-31T12:03:54;4.95;;;2.47;;
62654;SDS011;48717;55.556;37.816;2023-07-31T12:06:33;4.97;;;2.65;;
62654;SDS011;48717;55.556;37.816;2023-07-31T12:09:04;4.97;;;2.40;;
62654;SDS011;48717;55.556;37.816;2023-07-31T12:11:42;13.13;;;3.35;;
62654;SDS011;48717;55.556;37.816;2023-07-31T12:14:27;8.82;;;2.80;;
62654;SDS011;48717;55.556;37.816;2023-07-31T12:17:00;14.52;;;3.33;;
62654;SDS011;48717;55.556;37.816;2023-07-31T12:19:31;13.57;;;3.58;;
62654;SDS011;48717;55.556;37.816;2023-07-31T12:21:59;9.70;;;2.90;;
62654;SDS011;48717;55.556;37.816;2023-07-31T12:24:27;4.13;;;2.35;;
62654;SDS011;48717;55.556;37.816;2023-07-31T12:26:54;5.75;;;2.90;;
62654;SDS011;48717;55.556;37.816;2023-07-31T12:29:22;5.07;;;2.55;;
62654;SDS011;48717;55.556;37.816;2023-07-31T12:31:49;6.80;;;2.67;;
62654;SDS011;48717;55.556;37.816;2023-07-31T12:34:16;6.68;;;3.13;;
62654;SDS011;48717;55.556;37.816;2023-07-31T12:36:45;11.80;;;3.33;;
62654;SDS011;48717;55.556;37.816;2023-07-31T12:39:12;8.77;;;3.03;;
62654;SDS011;48717;55.556;37.816;2023-07-31T12:41:39;2.85;;;2.00;;
62654;SDS011;48717;55.556;37.816;2023-07-31T12:44:07;4.05;;;2.40;;
62654;SDS011;48717;55.556;37.816;2023-07-31T12:46:34;3.75;;;2.20;;
62654;SDS011;48717;55.556;37.816;2023-07-31T12:49:01;10.45;;;2.95;;
62654;SDS011;48717;55.556;37.816;2023-07-31T12:51:29;13.55;;;2.65;;
62654;SDS011;48717;55.556;37.816;2023-07-31T12:53:56;2.38;;;2.05;;
62654;SDS011;48717;55.556;37.816;2023-07-31T12:56:23;4.90;;;2.10;;
62654;SDS011;48717;55.556;37.816;2023-07-31T12:58:50;2.50;;;2.00;;
62654;SDS011;48717;55.556;37.816;2023-07-31T13:01:17;5.80;;;2.50;;
62654;SDS011;48717;55.556;37.816;2023-07-31T13:03:44;4.95;;;2.10;;
62654;SDS011;48717;55.556;37.816;2023-07-31T13:06:12;13.02;;;2.63;;
62654;SDS011;48717;55.556;37.816;2023-07-31T13:08:39;2.63;;;2.03;;
62654;SDS011;48717;55.556;37.816;2023-07-31T13:11:06;5.60;;;2.33;;
62654;SDS011;48717;55.556;37.816;2023-07-31T13:13:33;9.35;;;3.28;;
62654;SDS011;48717;55.556;37.816;2023-07-31T13:16:00;11.40;;;2.97;;
62654;SDS011;48717;55.556;37.816;2023-07-31T13:18:27;10.80;;;2.85;;
62654;SDS011;48717;55.556;37.816;2023-07-31T13:20:55;3.42;;;2.00;;
62654;SDS011;48717;55.556;37.816;2023-07-31T13:23:22;4.20;;;2.10;;
62654;SDS011;48717;55.556;37.816;2023-07-31T13:25:49;3.95;;;2.20;;
62654;SDS011;48717;55.556;37.816;2023-07-31T13:28:16;3.55;;;2.13;;
62654;SDS011;48717;55.556;37.816;2023-07-31T13:30:44;7.90;;;2.90;;
62654;SDS011;48717;55.556;37.816;2023-07-31T13:33:11;21.50;;;4.30;;
62654;SDS011;48717;55.556;37.816;2023-07-31T13:35:58;3.65;;;2.80;;
62654;SDS011;48717;55.556;37.816;2023-07-31T13:38:25;14.55;;;2.70;;
62654;SDS011;48717;55.556;37.816;2023-07-31T13:40:52;4.90;;;2.30;;
62654;SDS011;48717;55.556;37.816;2023-07-31T13:43:19;5.88;;;2.17;;
62654;SDS011;48717;55.556;37.816;2023-07-31T13:45:46;3.95;;;2.60;;
62654;SDS011;48717;55.556;37.816;2023-07-31T13:48:13;9.88;;;2.70;;
62654;SDS011;48717;55.556;37.816;2023-07-31T13:50:40;12.57;;;2.97;;
62654;SDS011;48717;55.556;37.816;2023-07-31T13:53:07;8.95;;;3.15;;
62654;SDS011;48717;55.556;37.816;2023-07-31T13:55:34;11.27;;;3.17;;
62654;SDS011;48717;55.556;37.816;2023-07-31T13:58:01;7.35;;;3.20;;
62654;SDS011;48717;55.556;37.816;2023-07-31T14:00:29;12.93;;;2.95;;
62654;SDS011;48717;55.556;37.816;2023-07-31T14:02:56;12.10;;;2.92;;
62654;SDS011;48717;55.556;37.816;2023-07-31T14:05:23;5.00;;;2.63;;
62654;SDS011;48717;55.556;37.816;2023-07-31T14:07:50;11.02;;;4.47;;
62654;SDS011;48717;55.556;37.816;2023-07-31T14:10:17;12.30;;;4.47;;
62654;SDS011;48717;55.556;37.816;2023-07-31T14:12:45;15.25;;;3.60;;
62654;SDS011;48717;55.556;37.816;2023-07-31T14:15:12;10.70;;;3.38;;
62654;SDS011;48717;55.556;37.816;2023-07-31T14:17:39;6.22;;;2.78;;
62654;SDS011;48717;55.556;37.816;2023-07-31T14:20:07;9.40;;;3.33;;
62654;SDS011;48717;55.556;37.816;2023-07-31T14:22:34;11.93;;;3.50;;
62654;SDS011;48717;55.556;37.816;2023-07-31T14:25:02;13.43;;;3.58;;
62654;SDS011;48717;55.556;37.816;2023-07-31T14:27:29;8.93;;;2.83;;
62654;SDS011;48717;55.556;37.816;2023-07-31T14:29:57;5.85;;;3.50;;
62654;SDS011;48717;55.556;37.816;2023-07-31T14:32:24;6.72;;;3.75;;
62654;SDS011;48717;55.556;37.816;2023-07-31T14:34:52;6.85;;;2.78;;
62654;SDS011;48717;55.556;37.816;2023-07-31T14:37:21;6.38;;;3.65;;
62654;SDS011;48717;55.556;37.816;2023-07-31T14:39:48;4.88;;;3.20;;
62654;SDS011;48717;55.556;37.816;2023-07-31T14:42:16;6.35;;;3.15;;
62654;SDS011;48717;55.556;37.816;2023-07-31T14:44:45;8.10;;;3.30;;
62654;SDS011;48717;55.556;37.816;2023-07-31T14:47:14;9.97;;;3.10;;
62654;SDS011;48717;55.556;37.816;2023-07-31T14:49:41;16.52;;;3.80;;
62654;SDS011;48717;55.556;37.816;2023-07-31T14:52:08;9.00;;;2.58;;
62654;SDS011;48717;55.556;37.816;2023-07-31T14:54:35;7.65;;;3.15;;
62654;SDS011;48717;55.556;37.816;2023-07-31T14:57:03;4.70;;;2.30;;
62654;SDS011;48717;55.556;37.816;2023-07-31T14:59:30;3.10;;;2.53;;
62654;SDS011;48717;55.556;37.816;2023-07-31T15:01:57;5.28;;;2.75;;
62654;SDS011;48717;55.556;37.816;2023-07-31T15:04:24;11.77;;;3.42;;
62654;SDS011;48717;55.556;37.816;2023-07-31T15:06:55;7.35;;;2.95;;
62654;SDS011;48717;55.556;37.816;2023-07-31T15:09:25;5.45;;;3.25;;